»·PEaware :: N323DK KTUS-KPRC

N323DK :: KTUS-KPRC

FLIGHT INFORMATION

Flight Status: Arrived
Operator: Privately registered:
United States
More flights under this callsign
Pilot: Dale K. (33503)
Aircraft: CESSNA 172 SKYHAWK
(C172)
More flights by this aircraft type
Origin: KTUS Tucson Intl
United States
Destination: KPRC Love
United States
More flights between these airports :: More routes between these airports
Route: A39 FACTA KPHX V257
File this flight plan on PilotEdge
Remarks:
Altitude:
(Current/Filed)
4,500ft
Speed:
(Current/Filed)
115kts
Departed: 22-Feb-21 02:50 PM
Arrived: 22-Feb-21 04:43 PM
Distance/Time
Traveled:
169nm/1:52
Distance/Time
To Go:
Arrived

Flight Plot

Page will automatically refresh every two minutes.

Flight plan parsing failed; only flown route is shown


Map Options




Map Legend


Flown Route
Filed Route
Departure Airport
Arrival Airport
Navaid (VOR, NDB)
Fix

Horizontal Profiles

Position Reports

Time Latitude Longitude Heading Altitude Ground
Speed
22-Feb-21 14:31 32.123091 -110.944109 223 2581ft 0kts
22-Feb-21 14:32 32.123091 -110.944109 223 2581ft 0kts
22-Feb-21 14:33 32.123091 -110.944109 223 2581ft 0kts
22-Feb-21 14:34 32.123091 -110.944109 223 2581ft 0kts
22-Feb-21 14:35 32.123091 -110.944109 223 2581ft 0kts
22-Feb-21 14:36 32.123091 -110.944109 223 2581ft 0kts
22-Feb-21 14:37 32.123091 -110.944109 223 2581ft 0kts
22-Feb-21 14:38 32.122913 -110.944283 207 2581ft 9kts
22-Feb-21 14:39 32.119835 -110.941208 134 2593ft 21kts
22-Feb-21 14:40 32.114926 -110.935454 134 2611ft 24kts
22-Feb-21 14:41 32.110305 -110.930076 134 2625ft 22kts
22-Feb-21 14:42 32.105688 -110.924661 135 2643ft 24kts
22-Feb-21 14:43 32.102776 -110.922291 227 2650ft 0kts
22-Feb-21 14:44 32.102775 -110.922291 227 2650ft 0kts
22-Feb-21 14:45 32.102776 -110.922291 227 2650ft 0kts
22-Feb-21 14:46 32.102776 -110.922291 227 2650ft 0kts
22-Feb-21 14:47 32.102776 -110.922291 227 2650ft 0kts
22-Feb-21 14:48 32.103031 -110.924048 313 2645ft 36kts
22-Feb-21 14:49 32.118093 -110.939905 328 3245ft 78kts
22-Feb-21 14:50 32.137316 -110.957727 315 3916ft 90kts
22-Feb-21 14:51 32.155838 -110.978402 313 4517ft 102kts
22-Feb-21 14:52 32.178530 -111.005198 313 4496ft 110kts
22-Feb-21 14:53 32.200289 -111.031164 314 4495ft 111kts
22-Feb-21 14:54 32.222982 -111.056480 314 4492ft 113kts
22-Feb-21 14:55 32.245723 -111.082497 316 4487ft 113kts
22-Feb-21 14:56 32.268383 -111.108030 316 4482ft 112kts
22-Feb-21 14:57 32.291150 -111.133632 316 4475ft 113kts
22-Feb-21 14:58 32.314090 -111.159226 316 4469ft 114kts
22-Feb-21 14:59 32.337271 -111.184939 316 4466ft 114kts
22-Feb-21 15:00 32.360410 -111.210591 316 4466ft 114kts
22-Feb-21 15:01 32.384099 -111.236076 317 4466ft 115kts
22-Feb-21 15:02 32.409724 -111.263411 317 4558ft 116kts
22-Feb-21 15:03 32.432585 -111.288219 316 5050ft 109kts
22-Feb-21 15:04 32.454629 -111.312502 316 5549ft 107kts
22-Feb-21 15:05 32.475719 -111.336029 315 6128ft 101kts
22-Feb-21 15:06 32.496596 -111.359881 315 6469ft 114kts
22-Feb-21 15:07 32.520514 -111.387234 315 6466ft 121kts
22-Feb-21 15:08 32.544780 -111.415028 315 6467ft 120kts
22-Feb-21 15:09 32.568352 -111.442054 315 6471ft 116kts
22-Feb-21 15:10 32.591560 -111.468644 315 6475ft 116kts
22-Feb-21 15:11 32.614771 -111.495234 315 6481ft 116kts
22-Feb-21 15:12 32.638006 -111.521840 315 6488ft 117kts
22-Feb-21 15:13 32.661603 -111.548841 315 6493ft 118kts
22-Feb-21 15:14 32.685545 -111.575600 316 6497ft 118kts
22-Feb-21 15:15 32.710211 -111.602121 317 6501ft 119kts
22-Feb-21 15:16 32.735040 -111.628582 317 6501ft 120kts
22-Feb-21 15:17 32.759818 -111.655604 316 6473ft 120kts
22-Feb-21 15:18 32.783099 -111.683426 314 6473ft 118kts
22-Feb-21 15:19 32.806402 -111.711460 314 6474ft 118kts
22-Feb-21 15:20 32.830048 -111.737715 318 6473ft 114kts
22-Feb-21 15:21 32.853808 -111.762499 318 6474ft 113kts
22-Feb-21 15:22 32.877352 -111.787665 317 6474ft 115kts
22-Feb-21 15:23 32.901033 -111.813557 313 6474ft 116kts
22-Feb-21 15:24 32.923511 -111.841327 315 6473ft 116kts
22-Feb-21 15:25 32.946871 -111.868034 315 6473ft 116kts
22-Feb-21 15:26 32.970114 -111.894499 315 6474ft 115kts
22-Feb-21 15:27 32.994727 -111.918916 335 6472ft 115kts
22-Feb-21 15:28 33.024656 -111.932371 339 6473ft 115kts
22-Feb-21 15:29 33.054703 -111.945113 339 6473ft 115kts
22-Feb-21 15:30 33.086399 -111.958501 339 5972ft 126kts
22-Feb-21 15:31 33.119603 -111.972549 339 5486ft 120kts
22-Feb-21 15:32 33.149668 -111.985328 339 5495ft 114kts
22-Feb-21 15:33 33.179936 -111.998168 338 5472ft 115kts
22-Feb-21 15:34 33.209993 -112.010930 338 5469ft 114kts
22-Feb-21 15:35 33.242127 -112.009404 6 5467ft 116kts
22-Feb-21 15:36 33.274284 -112.005891 358 5464ft 116kts
22-Feb-21 15:37 33.306760 -112.005239 357 5463ft 117kts
22-Feb-21 15:38 33.338986 -112.002721 19 5479ft 118kts
22-Feb-21 15:39 33.369101 -111.986640 7 5484ft 117kts
22-Feb-21 15:40 33.402460 -111.985777 353 5480ft 117kts
22-Feb-21 15:41 33.437549 -111.987030 354 5478ft 117kts
22-Feb-21 15:42 33.472033 -111.988234 354 5481ft 116kts
22-Feb-21 15:43 33.504356 -111.989730 354 5485ft 114kts
22-Feb-21 15:44 33.534444 -112.000278 340 5488ft 113kts
22-Feb-21 15:45 33.565239 -112.009202 348 5491ft 113kts
22-Feb-21 15:46 33.596522 -112.016075 348 5495ft 114kts
22-Feb-21 15:47 33.627901 -112.023168 348 5496ft 114kts
22-Feb-21 15:48 33.662709 -112.031439 348 5496ft 114kts
22-Feb-21 15:49 33.697335 -112.039489 347 5496ft 114kts
22-Feb-21 15:50 33.728841 -112.047105 347 5496ft 114kts
22-Feb-21 15:51 33.759567 -112.054460 347 5683ft 105kts
22-Feb-21 15:52 33.787079 -112.061509 346 6180ft 101kts
22-Feb-21 15:53 33.814710 -112.068428 346 6677ft 102kts
22-Feb-21 15:54 33.843917 -112.076059 345 6945ft 115kts
22-Feb-21 15:55 33.873266 -112.083803 345 7463ft 100kts
22-Feb-21 15:56 33.901539 -112.091146 345 7807ft 110kts
22-Feb-21 15:57 33.932715 -112.099231 345 8049ft 109kts
22-Feb-21 15:58 33.960987 -112.106399 345 8535ft 101kts
22-Feb-21 15:59 33.992446 -112.114418 345 8514ft 114kts
22-Feb-21 16:00 34.023451 -112.122368 345 8515ft 114kts
22-Feb-21 16:01 34.055231 -112.130517 345 8495ft 117kts
22-Feb-21 16:02 34.086961 -112.138664 345 8496ft 116kts
22-Feb-21 16:03 34.119035 -112.147001 346 8459ft 117kts
22-Feb-21 16:04 34.150648 -112.155365 346 8481ft 115kts
22-Feb-21 16:05 34.182126 -112.163292 347 8502ft 115kts
22-Feb-21 16:06 34.213466 -112.171299 347 8524ft 115kts
22-Feb-21 16:07 34.244654 -112.179586 347 8544ft 115kts
22-Feb-21 16:08 34.275925 -112.188065 347 8545ft 115kts
22-Feb-21 16:09 34.307528 -112.195169 354 8545ft 115kts
22-Feb-21 16:10 34.339203 -112.201652 347 8545ft 115kts
22-Feb-21 16:32 34.423913 -112.219647 345 8672ft 113kts
22-Feb-21 16:33 34.454754 -112.228523 331 8674ft 113kts
22-Feb-21 16:34 34.481348 -112.249334 325 8670ft 114kts
22-Feb-21 16:35 34.507256 -112.272990 318 8527ft 123kts
22-Feb-21 16:36 34.534199 -112.301689 318 7992ft 119kts
22-Feb-21 16:37 34.559098 -112.328493 318 7561ft 115kts
22-Feb-21 16:38 34.584081 -112.353993 319 7085ft 117kts
22-Feb-21 16:39 34.609035 -112.380324 319 6581ft 118kts
22-Feb-21 16:40 34.633307 -112.397004 39 6061ft 95kts
22-Feb-21 16:40 34.647854 -112.379321 19 6196ft 80kts
22-Feb-21 16:42 34.664246 -112.398678 290 5562ft 74kts
22-Feb-21 16:43 34.656513 -112.417318 220 4977ft 30kts
22-Feb-21 16:44 34.653853 -112.418738 152 4996ft 8kts
22-Feb-21 16:44 34.651919 -112.420463 215 5004ft 9kts
22-Feb-21 16:46 34.650973 -112.420927 125 5009ft 0kts

Navigation Log

Ident Type
Flight plan parsing failed, navigation log unavailable